Time;durP1;ratioP1;P1;durP2;ratioP2;P2;SDS_P1;SDS_P2;PMS_P1;PMS_P2;Temp;Humidity;BMP_temperature;BMP_pressure;BME280_temperature;BME280_humidity;BME280_pressure;Samples;Min_cycle;Max_cycle;Signal;HPM_P1;HPM_P2
2024/02/07 00:01:19;;;;;;;7.90;4.30;;;;;;;5.12;93.18;98071.39;105485;1256;70249;-76
2024/02/07 00:03:46;;;;;;;7.30;4.00;;;;;;;5.15;93.19;98069.00;105554;1258;72494;-77
2024/02/07 00:06:12;;;;;;;7.10;4.90;;;;;;;5.17;92.66;98073.16;106155;1256;61821;-77
2024/02/07 00:08:39;;;;;;;6.80;4.70;;;;;;;5.20;92.22;98074.16;106665;1257;59330;-76
2024/02/07 00:11:06;;;;;;;9.20;4.90;;;;;;;5.19;92.17;98065.35;106195;1256;72631;-76
2024/02/07 00:13:33;;;;;;;6.00;4.70;;;;;;;5.19;91.99;98066.77;106909;1256;70375;-75
2024/02/07 00:16:00;;;;;;;7.80;4.20;;;;;;;5.22;91.76;98062.48;106347;1256;72444;-78
2024/02/07 00:18:27;;;;;;;8.70;4.90;;;;;;;5.22;91.63;98065.48;106022;1256;60955;-76
2024/02/07 00:20:54;;;;;;;9.00;3.90;;;;;;;5.22;91.14;98056.05;106644;1259;60453;-77
2024/02/07 00:23:21;;;;;;;8.30;4.80;;;;;;;5.24;91.35;98051.50;106845;1256;72745;-75
2024/02/07 00:25:48;;;;;;;9.00;4.90;;;;;;;5.21;91.48;98057.27;106045;1256;70472;-77
2024/02/07 00:28:14;;;;;;;7.10;4.20;;;;;;;5.17;91.69;98051.73;105917;1256;72574;-77
2024/02/07 00:30:41;;;;;;;7.90;3.80;;;;;;;5.18;91.50;98054.77;105707;1260;62019;-76
2024/02/07 00:33:08;;;;;;;8.00;5.00;;;;;;;5.19;91.15;98045.90;105688;1259;60901;-77
2024/02/07 00:35:35;;;;;;;7.50;4.70;;;;;;;5.15;91.06;98044.75;105680;1257;73977;-78
2024/02/07 00:38:03;;;;;;;5.50;4.10;;;;;;;5.15;90.47;98053.73;105728;1256;70244;-78
2024/02/07 00:40:30;;;;;;;8.50;4.60;;;;;;;5.19;90.38;98052.63;105688;1256;72607;-79
2024/02/07 00:42:57;;;;;;;6.90;4.40;;;;;;;5.21;90.09;98042.70;105699;1256;61894;-76
2024/02/07 00:45:24;;;;;;;6.20;4.20;;;;;;;5.22;90.22;98038.02;105555;1259;60547;-75
2024/02/07 00:47:51;;;;;;;8.70;4.20;;;;;;;5.22;90.03;98049.05;105640;1260;60512;-76
2024/02/07 00:50:18;;;;;;;8.00;4.70;;;;;;;5.22;89.86;98037.10;105806;1256;70134;-75
2024/02/07 00:52:45;;;;;;;8.80;5.40;;;;;;;5.24;90.19;98034.98;105640;1260;72750;-76
2024/02/07 00:55:12;;;;;;;7.90;4.90;;;;;;;5.19;90.19;98028.77;105488;1256;61881;-76
2024/02/07 00:57:39;;;;;;;8.90;5.00;;;;;;;5.14;90.39;98022.05;105554;1256;60544;-76
2024/02/07 01:00:06;;;;;;;6.80;4.40;;;;;;;5.14;90.20;98023.10;105654;1256;71414;-75
2024/02/07 01:02:33;;;;;;;6.00;4.20;;;;;;;5.16;90.05;98020.80;105745;1257;68984;-75
2024/02/07 01:05:00;;;;;;;9.90;4.60;;;;;;;5.17;89.91;98023.48;105630;1256;74781;-74
2024/02/07 01:07:27;;;;;;;8.90;4.10;;;;;;;5.18;90.04;98019.48;105524;1256;61815;-75
2024/02/07 01:09:54;;;;;;;8.90;4.90;;;;;;;5.19;89.94;98022.38;105383;1262;60420;-75
2024/02/07 01:12:21;;;;;;;6.60;4.70;;;;;;;5.21;89.75;98007.45;105540;1260;73985;-75
2024/02/07 01:14:47;;;;;;;8.20;4.80;;;;;;;5.21;89.55;98008.11;105594;1260;68865;-76
2024/02/07 01:17:14;;;;;;;9.60;4.60;;;;;;;5.23;89.41;98002.83;105325;1257;60940;-75
2024/02/07 01:19:41;;;;;;;11.30;4.50;;;;;;;5.25;89.46;98003.31;107713;1256;61728;-74
2024/02/07 01:22:08;;;;;;;7.60;4.30;;;;;;;5.25;88.88;98002.19;108177;1256;58143;-75
2024/02/07 01:24:35;;;;;;;10.50;5.10;;;;;;;5.28;88.83;97995.91;106372;1260;74385;-75
2024/02/07 01:27:04;;;;;;;7.30;4.00;;;;;;;5.32;88.83;97990.00;105764;1257;68272;-73
2024/02/07 01:29:33;;;;;;;8.80;3.80;;;;;;;5.35;88.95;97986.75;105594;1261;71203;-73
2024/02/07 01:32:00;;;;;;;7.50;4.30;;;;;;;5.35;88.80;97987.76;105363;1257;62335;-75
2024/02/07 01:34:26;;;;;;;6.00;4.20;;;;;;;5.36;88.94;97984.50;105545;1256;60569;-74
2024/02/07 01:36:54;;;;;;;7.60;4.00;;;;;;;5.34;88.75;97985.40;105668;1260;73982;-74
2024/02/07 01:39:22;;;;;;;7.30;4.20;;;;;;;5.35;89.03;97979.83;105514;1256;70175;-75
2024/02/07 01:41:58;;;;;;;6.00;4.10;;;;;;;5.30;88.80;97987.60;105513;1256;72508;-74
2024/02/07 01:44:26;;;;;;;6.20;3.60;;;;;;;5.28;88.77;97972.71;105755;1257;61038;-74
2024/02/07 01:47:11;;;;;;;7.00;4.30;;;;;;;5.31;88.68;97976.52;105607;1257;60383;-74
2024/02/07 01:49:45;;;;;;;8.10;4.40;;;;;;;5.34;88.62;97973.25;105364;1260;73687;-74
2024/02/07 01:52:12;;;;;;;7.10;4.30;;;;;;;5.29;88.18;97976.85;105583;1262;69215;-75
2024/02/07 01:54:40;;;;;;;6.40;4.10;;;;;;;5.30;88.19;97963.88;105588;1257;72724;-75
2024/02/07 01:57:07;;;;;;;6.00;3.60;;;;;;;5.35;87.94;97960.58;105691;1262;60516;-75
2024/02/07 01:59:35;;;;;;;10.40;6.60;;;;;;;5.35;88.07;97954.69;105536;1256;60473;-75
2024/02/07 02:02:04;;;;;;;5.80;3.90;;;;;;;5.31;88.00;97957.61;105505;1257;73667;-76
2024/02/07 02:04:32;;;;;;;8.50;4.40;;;;;;;5.32;87.94;97951.15;105711;1262;68852;-78
2024/02/07 02:07:00;;;;;;;6.40;3.90;;;;;;;5.37;87.91;97950.88;105702;1257;72764;-77
2024/02/07 02:09:28;;;;;;;7.30;4.50;;;;;;;5.35;88.02;97948.53;105728;1256;60452;-76
2024/02/07 02:11:54;;;;;;;8.60;4.70;;;;;;;5.29;88.07;97939.99;105555;1256;60492;-75
2024/02/07 02:14:21;;;;;;;8.10;3.80;;;;;;;5.30;87.64;97944.58;105622;1256;73897;-75
2024/02/07 02:16:48;;;;;;;7.00;4.70;;;;;;;5.36;87.81;97942.19;105957;1256;69417;-76
2024/02/07 02:19:17;;;;;;;7.60;4.40;;;;;;;5.34;87.63;97945.05;107326;1256;71117;-74
2024/02/07 02:21:56;;;;;;;7.70;4.90;;;;;;;5.30;87.65;97943.38;107926;1257;60689;-76
2024/02/07 02:24:44;;;;;;;6.70;4.20;;;;;;;5.35;87.95;97939.14;106857;1256;60534;-75
2024/02/07 02:27:21;;;;;;;9.30;4.50;;;;;;;5.39;87.35;97948.85;105689;1261;72598;-75
2024/02/07 02:29:53;;;;;;;8.50;4.90;;;;;;;5.41;86.91;97945.98;105631;1256;70110;-75
2024/02/07 02:32:23;;;;;;;7.90;3.80;;;;;;;5.37;86.67;97945.41;105556;1256;72501;-76
2024/02/07 02:34:50;;;;;;;8.20;4.60;;;;;;;5.38;86.84;97939.35;105598;1256;61224;-75
2024/02/07 02:37:18;;;;;;;6.80;4.00;;;;;;;5.40;86.92;97941.85;105468;1261;60444;-76
2024/02/07 02:39:44;;;;;;;6.40;4.70;;;;;;;5.40;86.69;97939.80;105798;1257;74337;-75
2024/02/07 02:42:11;;;;;;;7.30;4.30;;;;;;;5.31;86.51;97937.40;105599;1264;60572;-75
2024/02/07 02:44:38;;;;;;;5.30;3.90;;;;;;;5.30;86.45;97940.56;107909;1256;72723;-77
2024/02/07 02:47:07;;;;;;;6.90;4.30;;;;;;;5.36;86.72;97925.64;107029;1256;60365;-76
2024/02/07 02:49:36;;;;;;;6.30;4.30;;;;;;;5.38;86.40;97925.91;106118;1260;194331;-74
2024/02/07 02:54:50;;;;;;;7.40;4.10;;;;;;;5.31;86.44;97922.30;103097;1290;599863;-76
2024/02/07 02:57:18;;;;;;;13.20;4.70;;;;;;;5.33;86.20;97925.67;104987;1272;60824;-75
2024/02/07 02:59:48;;;;;;;7.30;4.50;;;;;;;5.35;86.06;97917.67;105077;1273;59362;-75
2024/02/07 03:02:19;;;;;;;5.00;4.00;;;;;;;5.37;85.68;97914.88;105028;1267;71625;-75
2024/02/07 03:04:49;;;;;;;11.20;4.90;;;;;;;5.34;85.97;97907.29;105047;1270;69540;-76
2024/02/07 03:10:07;;;;;;;7.10;4.50;;;;;;;5.29;86.12;97914.52;105082;1264;60935;-76
2024/02/07 03:12:35;;;;;;;6.30;4.10;;;;;;;5.32;85.98;97898.16;105350;1268;59271;-76
2024/02/07 03:15:04;;;;;;;6.10;4.00;;;;;;;5.32;85.92;97901.02;105308;1271;72266;-74
2024/02/07 03:17:31;;;;;;;8.40;4.00;;;;;;;5.26;86.14;97898.52;105266;1270;70145;-73
2024/02/07 03:19:59;;;;;;;7.40;3.70;;;;;;;5.29;85.79;97904.31;107021;1267;74823;-77
2024/02/07 03:22:27;;;;;;;7.20;4.20;;;;;;;5.34;85.83;97886.92;108434;1267;58859;-77
2024/02/07 03:24:55;;;;;;;10.10;4.40;;;;;;;5.30;85.60;97883.98;107536;1264;59733;-78
2024/02/07 03:27:23;;;;;;;5.60;4.40;;;;;;;5.29;85.41;97884.42;105651;1264;71446;-76
2024/02/07 03:29:51;;;;;;;7.30;4.10;;;;;;;5.34;84.92;97882.67;105642;1269;69056;-78
2024/02/07 03:32:19;;;;;;;6.30;4.10;;;;;;;5.37;84.71;97871.26;105642;1268;72475;-77
2024/02/07 03:34:47;;;;;;;10.10;3.80;;;;;;;5.33;84.76;97867.14;105184;1271;59630;-77
2024/02/07 03:37:16;;;;;;;6.00;3.30;;;;;;;5.29;84.94;97876.73;104952;1265;59710;-78
2024/02/07 03:39:44;;;;;;;7.40;3.90;;;;;;;5.36;84.47;97869.69;105124;1270;70878;-77
2024/02/07 03:42:11;;;;;;;8.10;4.30;;;;;;;5.39;84.53;97857.41;105120;1264;69318;-78
2024/02/07 03:44:38;;;;;;;5.90;3.20;;;;;;;5.34;84.58;97852.16;105041;1264;71772;-77
2024/02/07 03:47:06;;;;;;;8.10;3.80;;;;;;;5.34;84.72;97854.23;105182;1267;59708;-77
2024/02/07 03:49:34;;;;;;;6.60;3.60;;;;;;;5.37;84.38;97857.30;104930;1270;59478;-76
2024/02/07 03:52:01;;;;;;;7.50;3.90;;;;;;;5.36;84.37;97855.59;105147;1264;73651;-75
2024/02/07 03:54:29;;;;;;;4.80;3.40;;;;;;;5.34;84.47;97848.66;105397;1260;70400;-76
2024/02/07 03:56:56;;;;;;;6.80;4.10;;;;;;;5.38;84.57;97842.55;105593;1263;71427;-76
2024/02/07 03:59:24;;;;;;;9.10;4.40;;;;;;;5.39;85.01;97840.55;105290;1262;60385;-76
2024/02/07 04:01:51;;;;;;;5.90;3.40;;;;;;;5.32;84.46;97852.83;105300;1261;59760;-77
2024/02/07 04:04:20;;;;;;;7.80;3.70;;;;;;;5.33;84.35;97846.08;105261;1261;73101;-76
2024/02/07 04:06:49;;;;;;;5.50;3.70;;;;;;;5.37;84.15;97835.80;105436;1267;69948;-79
2024/02/07 04:09:19;;;;;;;5.20;3.40;;;;;;;5.40;84.16;97831.74;105452;1267;72586;-77
2024/02/07 05:17:25;;;;;;;6.40;3.40;;;;;;;5.75;81.72;97785.99;106259;1257;70571;-78
2024/02/07 05:19:53;;;;;;;7.10;3.30;;;;;;;5.75;81.65;97787.24;106233;1257;60138;-77
2024/02/07 05:22:20;;;;;;;7.00;4.20;;;;;;;5.68;81.74;97774.36;108613;1253;59142;-77
2024/02/07 05:24:50;;;;;;;6.50;3.70;;;;;;;5.68;81.96;97771.33;109010;1254;71671;-77
2024/02/07 05:27:18;;;;;;;6.80;3.80;;;;;;;5.76;81.91;97777.80;107009;1254;69356;-77
2024/02/07 05:29:45;;;;;;;7.20;4.70;;;;;;;5.75;81.43;97772.15;107746;1256;70619;-76
2024/02/07 05:32:13;;;;;;;6.60;3.70;;;;;;;5.69;81.83;97770.48;108867;1254;60408;-77
2024/02/07 05:34:41;;;;;;;3.90;3.20;;;;;;;5.74;81.48;97788.58;108817;1254;59583;-77
2024/02/07 05:37:08;;;;;;;4.40;3.10;;;;;;;5.83;80.87;97777.08;108890;1253;71792;-80
2024/02/07 05:39:37;;;;;;;5.00;3.40;;;;;;;5.85;80.68;97761.88;106493;1254;71269;-77
2024/02/07 05:42:06;;;;;;;6.30;3.50;;;;;;;5.82;80.54;97768.27;105743;1257;71272;-74
2024/02/07 05:44:34;;;;;;;5.50;3.00;;;;;;;5.86;80.17;97779.38;107657;1257;59568;-78
2024/02/07 05:47:02;;;;;;;5.00;3.30;;;;;;;5.96;79.88;97766.05;106321;1253;60019;-77
2024/02/07 05:49:29;;;;;;;6.90;3.70;;;;;;;5.97;79.88;97762.42;106089;1257;73111;-78
2024/02/07 05:52:00;;;;;;;6.60;3.30;;;;;;;5.93;79.94;97758.67;105931;1258;69283;-77
2024/02/07 05:54:30;;;;;;;5.30;3.70;;;;;;;5.91;80.11;97759.09;105957;1254;71438;-78
2024/02/07 05:56:58;;;;;;;5.70;3.50;;;;;;;5.97;79.73;97767.06;105842;1254;60990;-77
2024/02/07 05:59:25;;;;;;;6.20;3.40;;;;;;;6.03;79.28;97770.79;105808;1254;60181;-77
2024/02/07 06:01:53;;;;;;;5.20;3.70;;;;;;;6.02;79.24;97758.86;105904;1257;71880;-78
2024/02/07 06:04:21;;;;;;;6.00;3.80;;;;;;;6.01;79.43;97751.42;105926;1254;69347;-77
2024/02/07 06:06:49;;;;;;;4.90;3.00;;;;;;;6.07;79.55;97752.83;105920;1254;72656;-78
2024/02/07 06:09:17;;;;;;;6.30;3.30;;;;;;;6.07;79.08;97737.27;105860;1258;60059;-76
2024/02/07 06:11:45;;;;;;;5.90;3.70;;;;;;;6.04;79.22;97741.70;105629;1252;59695;-79
2024/02/07 06:14:14;;;;;;;5.60;3.80;;;;;;;6.10;78.89;97742.19;106359;1254;73038;-77
2024/02/07 06:16:42;;;;;;;5.90;4.10;;;;;;;6.19;78.48;97745.55;106107;1255;70647;-77
2024/02/07 06:19:12;;;;;;;6.10;4.30;;;;;;;6.18;78.49;97752.77;106901;1254;72699;-76
2024/02/07 06:21:41;;;;;;;6.90;4.20;;;;;;;6.17;78.26;97749.71;108297;1254;59637;-76
2024/02/07 06:24:09;;;;;;;5.90;3.70;;;;;;;6.27;78.24;97744.38;108042;1254;59244;-77
2024/02/07 06:26:36;;;;;;;5.20;3.40;;;;;;;6.32;78.03;97742.15;107374;1253;73191;-76
2024/02/07 06:29:03;;;;;;;4.40;2.90;;;;;;;6.29;78.12;97745.73;106189;1254;69627;-77
2024/02/07 06:31:31;;;;;;;7.30;3.70;;;;;;;6.26;78.33;97728.34;106271;1254;74571;-76
2024/02/07 06:33:58;;;;;;;4.80;3.90;;;;;;;6.31;78.28;97734.35;106109;1254;60429;-79
2024/02/07 06:36:26;;;;;;;7.40;4.40;;;;;;;6.36;78.08;97740.23;106064;1260;60178;-78
2024/02/07 06:38:54;;;;;;;6.70;4.20;;;;;;;6.32;77.96;97746.56;105882;1259;73439;-79
2024/02/07 06:41:23;;;;;;;8.10;4.40;;;;;;;6.31;78.11;97746.23;105770;1254;70889;-79
2024/02/07 06:43:51;;;;;;;10.30;4.30;;;;;;;6.38;77.92;97748.15;106918;1255;71455;-78
2024/02/07 06:46:18;;;;;;;5.70;4.30;;;;;;;6.44;77.89;97738.95;105995;1253;60032;-80
2024/02/07 06:48:46;;;;;;;7.70;5.10;;;;;;;6.43;78.01;97743.09;106251;1253;60537;-81
2024/02/07 06:51:14;;;;;;;10.50;6.00;;;;;;;6.37;78.33;97734.46;106135;1254;71665;-85
2024/02/07 06:53:42;;;;;;;6.40;3.80;;;;;;;6.38;78.57;97738.83;106466;1253;69071;-79
2024/02/07 06:56:10;;;;;;;6.70;4.80;;;;;;;6.47;78.19;97745.08;106239;1257;72726;-83
2024/02/07 06:58:37;;;;;;;4.60;3.30;;;;;;;6.49;77.74;97753.65;106362;1253;61032;-82
2024/02/07 07:01:05;;;;;;;7.10;3.60;;;;;;;6.48;77.84;97734.21;107152;1253;59523;-81
2024/02/07 07:03:32;;;;;;;5.50;3.50;;;;;;;6.57;77.47;97731.05;108324;1253;71545;-81
2024/02/07 07:06:00;;;;;;;6.30;4.20;;;;;;;6.62;77.18;97745.18;108934;1251;68906;-81
2024/02/07 07:08:28;;;;;;;6.60;3.60;;;;;;;6.62;76.87;97746.16;108551;1254;72631;-84
2024/02/07 07:10:55;;;;;;;5.40;3.00;;;;;;;6.67;76.78;97736.57;107187;1254;60456;-83
2024/02/07 07:13:23;;;;;;;5.30;3.40;;;;;;;6.77;76.15;97727.08;108700;1252;61004;-84
2024/02/07 07:15:51;;;;;;;6.80;3.90;;;;;;;6.80;76.16;97726.38;107098;1259;76193;-83
2024/02/07 07:18:18;;;;;;;7.00;3.40;;;;;;;6.78;76.07;97729.30;106683;1254;70356;-83
2024/02/07 07:20:46;;;;;;;4.90;3.40;;;;;;;6.84;76.27;97722.86;106742;1254;72679;-81
2024/02/07 07:23:14;;;;;;;5.40;3.30;;;;;;;6.93;75.71;97734.97;108059;1251;62272;-82
2024/02/07 07:25:43;;;;;;;6.10;3.80;;;;;;;6.94;75.41;97724.24;109305;1253;58966;-83
2024/02/07 07:28:11;;;;;;;5.80;3.50;;;;;;;6.93;75.37;97721.39;108234;1253;75056;-83
2024/02/07 07:30:39;;;;;;;5.80;3.40;;;;;;;7.00;75.68;97719.60;107878;1254;70264;-83
2024/02/07 07:33:07;;;;;;;8.60;3.90;;;;;;;7.08;74.88;97723.52;107338;1253;70721;-84
2024/02/07 07:35:34;;;;;;;5.70;3.50;;;;;;;7.07;74.88;97722.76;107320;1251;60463;-85
2024/02/07 07:38:04;;;;;;;5.60;4.00;;;;;;;7.03;74.97;97715.54;108175;1253;59039;-85
2024/02/07 07:40:38;;;;;;;;;;;;;;;7.04;75.06;97715.37;108737;1252;74087;-82
2024/02/07 07:43:08;;;;;;;8.40;4.10;;;;;;;7.11;74.43;97713.83;108921;1254;71565;-84
2024/02/07 07:45:36;;;;;;;6.60;4.00;;;;;;;7.14;74.73;97709.29;106947;1257;73978;-83
2024/02/07 07:48:04;;;;;;;7.30;3.60;;;;;;;7.11;74.60;97713.70;106568;1254;61048;-83
2024/02/07 07:50:33;;;;;;;5.20;3.60;;;;;;;7.08;74.81;97712.55;106933;1254;60526;-83
2024/02/07 07:53:01;;;;;;;6.60;3.60;;;;;;;7.12;74.47;97710.94;107025;1259;75134;-83
2024/02/07 07:55:29;;;;;;;9.90;4.10;;;;;;;7.17;74.03;97709.70;106395;1256;68204;-83
2024/02/07 07:57:56;;;;;;;4.70;3.50;;;;;;;7.14;73.89;97723.10;106565;1254;72941;-83
2024/02/07 08:00:24;;;;;;;7.20;3.70;;;;;;;7.10;74.04;97708.82;106537;1254;60692;-84
2024/02/07 08:02:51;;;;;;;6.60;3.90;;;;;;;7.14;74.04;97694.58;106817;1252;60572;-77
2024/02/07 08:05:19;;;;;;;5.90;3.50;;;;;;;7.19;73.78;97713.49;106006;1254;74011;-76
2024/02/07 08:07:47;;;;;;;7.10;3.90;;;;;;;7.16;73.71;97708.56;105922;1255;68667;-79
2024/02/07 08:10:15;;;;;;;6.90;3.60;;;;;;;7.11;73.63;97709.92;106918;1254;73665;-79
2024/02/07 08:12:43;;;;;;;5.00;3.10;;;;;;;7.12;73.60;97705.75;107733;1254;60506;-78
2024/02/07 08:15:10;;;;;;;5.60;2.80;;;;;;;7.22;73.44;97705.05;107446;1253;62053;-83
2024/02/07 08:17:38;;;;;;;6.10;3.40;;;;;;;7.24;73.16;97698.89;107735;1253;74896;-80
2024/02/07 08:20:06;;;;;;;8.40;4.20;;;;;;;7.23;73.69;97692.15;106667;1256;69453;-79
2024/02/07 08:22:34;;;;;;;5.50;3.20;;;;;;;7.21;73.45;97697.38;107152;1252;71503;-78
2024/02/07 08:25:02;;;;;;;4.80;3.40;;;;;;;7.27;73.24;97688.38;109077;1253;59142;-78
2024/02/07 08:27:29;;;;;;;3.70;2.80;;;;;;;7.39;72.99;97687.86;108907;1253;60979;-79
2024/02/07 08:29:57;;;;;;;4.60;3.20;;;;;;;7.40;72.83;97668.02;108190;1253;72555;-79
2024/02/07 08:32:24;;;;;;;5.90;3.50;;;;;;;7.39;72.88;97661.81;108104;1253;69187;-80
2024/02/07 08:34:52;;;;;;;6.50;3.80;;;;;;;7.38;72.88;97659.85;107335;1259;72772;-82
2024/02/07 08:37:21;;;;;;;8.20;3.80;;;;;;;7.42;72.98;97672.67;106594;1254;60983;-80
2024/02/07 08:39:49;;;;;;;8.30;4.40;;;;;;;7.51;72.59;97658.14;108155;1253;60438;-83
2024/02/07 08:42:17;;;;;;;8.60;4.30;;;;;;;7.51;72.69;97672.48;108528;1256;74714;-82
2024/02/07 08:44:45;;;;;;;5.50;3.90;;;;;;;7.49;72.66;97660.70;107858;1254;71387;-83
2024/02/07 08:47:12;;;;;;;6.90;4.20;;;;;;;7.51;72.96;97655.73;107886;1257;71644;-81
2024/02/07 08:49:40;;;;;;;5.40;3.00;;;;;;;7.61;72.80;97652.11;107312;1254;61146;-79
2024/02/07 08:52:09;;;;;;;9.10;4.70;;;;;;;7.71;72.20;97637.73;107684;1253;61957;-81
2024/02/07 08:54:36;;;;;;;7.30;4.20;;;;;;;7.73;72.01;97643.72;107658;1254;74380;-82
2024/02/07 08:57:04;;;;;;;6.40;4.30;;;;;;;7.75;71.97;97636.60;106258;1254;69290;-80
2024/02/07 08:59:32;;;;;;;6.50;4.00;;;;;;;7.79;71.94;97619.16;106361;1257;71084;-78
2024/02/07 09:01:59;;;;;;;7.90;3.80;;;;;;;7.84;71.57;97623.18;106026;1254;60549;-79
2024/02/07 09:04:31;;;;;;;8.30;4.00;;;;;;;8.01;71.17;97620.09;106132;1256;62324;-76
2024/02/07 09:06:59;;;;;;;5.80;4.00;;;;;;;8.20;70.23;97627.66;106346;1257;75157;-82
2024/02/07 09:09:27;;;;;;;4.30;3.30;;;;;;;8.30;70.16;97627.73;108282;1254;68837;-80
2024/02/07 09:11:54;;;;;;;6.20;3.60;;;;;;;8.36;69.78;97642.17;106638;1254;73637;-80
2024/02/07 09:14:22;;;;;;;8.20;3.70;;;;;;;8.44;69.49;97626.20;106156;1254;60625;-82
2024/02/07 09:16:49;;;;;;;5.20;3.30;;;;;;;8.53;69.48;97620.20;106173;1252;60392;-79
2024/02/07 09:19:17;;;;;;;6.60;3.00;;;;;;;8.61;68.68;97626.62;106166;1252;74351;-80
2024/02/07 09:21:45;;;;;;;6.50;3.10;;;;;;;8.63;68.50;97616.23;106396;1260;69230;-84
2024/02/07 09:24:12;;;;;;;8.10;4.40;;;;;;;8.61;68.40;97612.80;108948;1253;73616;-81
2024/02/07 09:26:40;;;;;;;5.90;3.70;;;;;;;8.62;68.62;97618.52;109321;1251;61061;-86
2024/02/07 09:29:13;;;;;;;6.60;4.90;;;;;;;8.60;68.86;97624.55;109063;1252;60485;-80
2024/02/07 09:31:40;;;;;;;8.40;3.80;;;;;;;8.62;68.89;97609.80;108840;1254;72815;-84
2024/02/07 09:34:08;;;;;;;6.30;4.60;;;;;;;8.70;68.72;97605.06;109035;1254;68603;-89
2024/02/07 09:36:49;;;;;;;6.10;3.90;;;;;;;8.85;68.26;97603.02;108463;1257;73784;-86
2024/02/07 09:39:20;;;;;;;6.20;3.70;;;;;;;8.95;68.51;97600.29;108481;1259;60376;-80
2024/02/07 09:41:48;;;;;;;5.20;3.20;;;;;;;9.03;67.44;97613.30;106625;1252;61198;-81
2024/02/07 09:44:17;;;;;;;8.00;3.60;;;;;;;9.04;67.07;97599.14;107335;1253;75675;-81
2024/02/07 09:46:44;;;;;;;6.70;3.90;;;;;;;9.05;67.73;97583.50;106561;1252;70887;-81
2024/02/07 09:49:14;;;;;;;6.10;3.90;;;;;;;9.06;67.43;97578.73;106664;1254;75176;-87
2024/02/07 09:51:43;;;;;;;5.30;2.80;;;;;;;9.09;67.39;97585.15;107964;1251;61013;-86
2024/02/07 09:54:12;;;;;;;4.80;3.50;;;;;;;9.09;67.19;97575.90;107474;1257;60951;-85
2024/02/07 09:56:40;;;;;;;4.80;3.20;;;;;;;9.10;66.86;97586.08;107886;1254;74877;-84
2024/02/07 09:59:10;;;;;;;8.70;3.10;;;;;;;9.05;67.03;97576.94;106698;1258;69286;-84
2024/02/07 10:01:38;;;;;;;3.90;3.00;;;;;;;9.00;67.11;97572.77;106661;1254;72738;-86
2024/02/07 10:04:26;;;;;;;4.90;3.10;;;;;;;8.93;67.57;97582.41;107518;1253;60499;-86
2024/02/07 10:06:58;;;;;;;6.40;3.90;;;;;;;8.87;67.79;97572.25;109153;1253;63857;-84
2024/02/07 10:09:29;;;;;;;5.20;2.80;;;;;;;8.88;67.62;97574.09;108768;1254;74768;-78
2024/02/07 10:11:58;;;;;;;8.00;2.90;;;;;;;8.90;67.52;97568.38;106858;1254;72654;-86
2024/02/07 10:14:25;;;;;;;5.30;3.10;;;;;;;8.84;67.78;97575.65;106629;1256;73664;-83
2024/02/07 10:16:53;;;;;;;4.30;2.80;;;;;;;8.80;67.80;97572.85;107652;1256;62742;-85
2024/02/07 10:19:22;;;;;;;7.00;3.40;;;;;;;8.76;68.13;97571.48;106644;1253;60774;-87
2024/02/07 10:21:50;;;;;;;5.40;3.20;;;;;;;8.72;68.14;97567.95;107304;1253;74753;-86
2024/02/07 10:24:18;;;;;;;6.50;3.30;;;;;;;8.69;67.88;97569.74;107236;1254;71577;-87
2024/02/07 10:26:46;;;;;;;5.00;3.20;;;;;;;8.70;68.23;97563.73;109338;1253;73605;-84
2024/02/07 10:29:14;;;;;;;5.00;3.10;;;;;;;8.73;68.11;97562.65;109068;1253;62282;-87
2024/02/07 10:31:51;;;;;;;5.20;3.20;;;;;;;8.77;67.92;97576.93;108945;1258;61272;-84
2024/02/07 10:34:19;;;;;;;6.10;3.40;;;;;;;8.80;67.91;97556.73;108746;1257;74849;-84
2024/02/07 10:36:56;;;;;;;6.00;2.80;;;;;;;8.83;68.26;97558.58;108895;1254;71610;-83
2024/02/07 10:39:24;;;;;;;3.40;2.80;;;;;;;8.86;67.74;97555.02;109236;1254;73569;-87
2024/02/07 10:41:53;;;;;;;4.60;2.90;;;;;;;8.91;67.50;97562.38;108019;1256;60979;-86
2024/02/07 10:44:22;;;;;;;7.30;3.60;;;;;;;9.01;67.05;97557.19;108392;1255;60330;-87
2024/02/07 10:46:59;;;;;;;6.30;3.70;;;;;;;9.10;66.77;97565.10;108233;1254;74831;-88
2024/02/07 10:49:27;;;;;;;5.50;3.30;;;;;;;9.15;67.09;97550.36;106088;1260;68448;-75
2024/02/07 10:51:54;;;;;;;4.20;3.00;;;;;;;9.18;66.65;97560.37;105631;1260;73132;-76
2024/02/07 10:54:22;;;;;;;6.40;2.80;;;;;;;9.18;66.48;97556.12;105600;1254;60459;-75
2024/02/07 10:56:50;;;;;;;8.90;3.90;;;;;;;9.16;66.08;97577.23;107581;1254;62332;-84
2024/02/07 10:59:17;;;;;;;4.50;3.00;;;;;;;9.15;66.29;97566.89;108381;1254;74837;-81
2024/02/07 11:01:45;;;;;;;6.20;3.40;;;;;;;9.17;66.48;97557.20;107419;1259;70812;-80
2024/02/07 11:04:13;;;;;;;5.60;3.20;;;;;;;9.19;66.44;97576.83;107660;1262;72511;-80
2024/02/07 11:06:41;;;;;;;7.00;3.70;;;;;;;9.21;66.23;97568.21;107020;1257;60417;-78
2024/02/07 11:09:09;;;;;;;6.80;3.00;;;;;;;9.21;66.13;97576.70;107052;1262;60480;-77
2024/02/07 11:11:36;;;;;;;7.00;3.00;;;;;;;9.20;66.68;97574.67;106187;1262;74814;-79
2024/02/07 11:14:05;;;;;;;7.80;3.60;;;;;;;9.19;66.26;97559.52;105966;1260;72233;-78
2024/02/07 11:16:40;;;;;;;4.30;3.00;;;;;;;9.14;66.64;97570.65;105680;1261;73627;-77
2024/02/07 11:19:11;;;;;;;6.30;3.20;;;;;;;9.07;66.69;97558.92;105604;1257;61155;-78
2024/02/07 11:21:39;;;;;;;6.70;3.50;;;;;;;9.02;66.47;97552.18;106270;1259;61164;-78
2024/02/07 11:24:06;;;;;;;7.70;4.10;;;;;;;8.99;66.92;97535.85;106622;1254;74066;-78
2024/02/07 11:26:34;;;;;;;7.20;4.10;;;;;;;8.98;67.17;97547.96;107015;1256;72626;-80
2024/02/07 11:29:03;;;;;;;7.30;3.50;;;;;;;8.97;67.15;97544.88;108894;1257;72786;-80
2024/02/07 11:31:34;;;;;;;4.70;3.30;;;;;;;8.98;67.30;97541.29;108882;1254;60318;-81
2024/02/07 11:34:02;;;;;;;10.30;4.60;;;;;;;8.98;67.01;97543.35;109112;1254;58746;-79
2024/02/07 11:36:29;;;;;;;5.60;4.30;;;;;;;8.98;66.91;97543.88;108095;1257;75266;-77
2024/02/07 11:38:58;;;;;;;7.60;4.50;;;;;;;8.98;67.21;97536.06;106858;1257;70167;-79
2024/02/07 11:41:27;;;;;;;7.40;3.90;;;;;;;8.98;67.01;97532.23;106293;1257;74222;-80
2024/02/07 11:44:06;;;;;;;9.40;3.20;;;;;;;8.96;67.23;97543.79;105738;1260;60365;-80
2024/02/07 11:46:45;;;;;;;5.60;3.50;;;;;;;8.93;67.34;97537.88;105902;1261;60344;-79
2024/02/07 11:49:16;;;;;;;6.50;3.30;;;;;;;8.89;67.18;97535.95;105838;1259;75058;-80
2024/02/07 11:51:44;;;;;;;5.40;3.50;;;;;;;8.88;67.65;97522.93;105861;1262;71277;-80
2024/02/07 11:54:12;;;;;;;5.20;3.40;;;;;;;8.86;67.43;97526.14;105813;1257;73527;-78
2024/02/07 11:56:39;;;;;;;6.80;3.90;;;;;;;8.84;67.70;97535.77;105824;1260;60498;-79
2024/02/07 11:59:07;;;;;;;5.70;3.10;;;;;;;8.81;67.57;97544.04;105892;1260;61041;-78
2024/02/07 12:01:35;;;;;;;7.40;3.30;;;;;;;8.78;67.74;97528.59;106613;1260;74772;-81
2024/02/07 12:04:03;;;;;;;6.30;2.80;;;;;;;8.75;67.76;97545.95;106047;1257;68835;-79
2024/02/07 12:06:32;;;;;;;8.10;3.40;;;;;;;8.72;68.05;97529.91;107637;1258;72881;-80
2024/02/07 12:09:00;;;;;;;6.70;3.00;;;;;;;8.71;68.04;97549.83;106626;1257;60559;-79
2024/02/07 12:11:29;;;;;;;6.90;3.60;;;;;;;8.70;68.14;97535.58;105938;1260;60495;-80
2024/02/07 12:13:57;;;;;;;7.90;3.90;;;;;;;8.70;68.08;97539.16;105962;1255;72982;-80
2024/02/07 12:16:25;;;;;;;7.20;3.60;;;;;;;8.69;68.62;97528.90;105857;1260;69910;-79
2024/02/07 12:18:52;;;;;;;6.80;4.40;;;;;;;8.69;68.34;97524.86;105840;1262;72812;-77
2024/02/07 12:21:20;;;;;;;10.20;5.10;;;;;;;8.68;67.92;97529.27;105699;1257;62121;-76
2024/02/07 12:23:52;;;;;;;7.50;4.00;;;;;;;8.69;68.42;97519.30;105897;1261;60819;-77
2024/02/07 12:26:24;;;;;;;6.30;3.60;;;;;;;8.71;68.59;97511.52;105956;1262;74793;-80
2024/02/07 12:28:56;;;;;;;7.40;4.20;;;;;;;8.71;68.37;97525.55;106712;1257;72500;-78
2024/02/07 12:31:33;;;;;;;9.40;4.10;;;;;;;8.72;68.22;97530.48;108806;1257;71946;-77
2024/02/07 12:34:01;;;;;;;6.80;3.60;;;;;;;8.75;68.21;97512.67;108562;1257;60422;-75
2024/02/07 12:36:28;;;;;;;4.70;3.20;;;;;;;8.77;68.20;97510.95;106396;1260;60462;-78
2024/02/07 12:38:56;;;;;;;7.80;3.30;;;;;;;8.77;68.24;97509.45;106951;1257;75894;-77
2024/02/07 12:41:24;;;;;;;8.00;3.10;;;;;;;8.77;68.13;97525.58;106252;1260;69755;-76
2024/02/07 12:43:55;;;;;;;6.80;3.40;;;;;;;8.76;68.09;97511.61;105681;1260;72799;-75
2024/02/07 12:46:23;;;;;;;15.80;5.60;;;;;;;8.75;68.25;97533.44;105762;1261;60425;-78
2024/02/07 12:48:51;;;;;;;8.10;4.20;;;;;;;8.74;68.63;97517.90;105714;1254;61122;-80
2024/02/07 12:51:19;;;;;;;8.70;4.90;;;;;;;8.72;68.58;97540.27;105863;1262;72945;-77